createdAt,value
2018-11-26T00:00:31.123Z,93.90
2018-11-26T00:02:59.571Z,93.80
2018-11-26T00:05:28.030Z,93.80
2018-11-26T00:07:56.464Z,93.60
2018-11-26T00:10:36.147Z,93.70
2018-11-26T00:13:04.875Z,93.80
2018-11-26T00:15:33.402Z,94.30
2018-11-26T00:18:01.898Z,94.00
2018-11-26T00:20:30.326Z,93.80
2018-11-26T00:22:58.792Z,93.60
2018-11-26T00:25:27.233Z,93.70
2018-11-26T00:27:55.735Z,93.80
2018-11-26T00:30:24.296Z,93.90
2018-11-26T00:32:52.689Z,94.00
2018-11-26T00:35:21.137Z,93.70
2018-11-26T00:37:49.595Z,93.80
2018-11-26T00:40:18.002Z,93.80
2018-11-26T00:42:46.771Z,94.00
2018-11-26T00:45:15.306Z,93.80
2018-11-26T00:47:43.674Z,93.80
2018-11-26T00:50:12.104Z,93.70
2018-11-26T00:52:40.947Z,93.70
2018-11-26T00:55:10.921Z,93.60
2018-11-26T00:57:39.398Z,94.00
2018-11-26T01:00:11.266Z,94.10
2018-11-26T01:02:39.817Z,94.10
2018-11-26T01:05:10.391Z,94.30
2018-11-26T01:07:38.844Z,94.30
2018-11-26T01:10:07.311Z,94.60
2018-11-26T01:12:35.759Z,94.60
2018-11-26T01:15:04.237Z,94.60
2018-11-26T01:17:32.785Z,95.00
2018-11-26T01:20:01.213Z,95.00
2018-11-26T01:22:29.751Z,94.90
2018-11-26T01:24:58.221Z,94.90
2018-11-26T01:27:26.647Z,94.90
2018-11-26T01:29:55.070Z,95.10
2018-11-26T01:32:23.535Z,94.90
2018-11-26T01:34:52.002Z,94.70
2018-11-26T01:37:20.445Z,95.00
2018-11-26T01:39:48.863Z,95.10
2018-11-26T01:42:17.279Z,95.00
2018-11-26T01:44:45.782Z,95.00
2018-11-26T01:47:14.271Z,94.90
2018-11-26T01:49:42.703Z,95.00
2018-11-26T01:52:11.191Z,95.20
2018-11-26T01:54:39.648Z,95.10
2018-11-26T01:57:08.077Z,95.40
2018-11-26T01:59:36.516Z,95.50
2018-11-26T02:02:05.392Z,95.70
2018-11-26T02:04:33.861Z,95.90
2018-11-26T02:07:02.333Z,96.10
2018-11-26T02:09:30.787Z,95.90
2018-11-26T02:11:59.551Z,95.70
2018-11-26T02:14:27.989Z,96.00
2018-11-26T02:16:56.431Z,95.90
2018-11-26T02:19:24.839Z,95.90
2018-11-26T02:21:53.303Z,96.00
2018-11-26T02:24:21.831Z,96.30
2018-11-26T02:26:50.277Z,96.10
2018-11-26T02:29:18.721Z,95.90
2018-11-26T02:31:47.157Z,95.90
2018-11-26T02:34:15.658Z,96.20
2018-11-26T02:36:44.094Z,95.80
2018-11-26T02:39:12.529Z,95.50
2018-11-26T02:41:41.026Z,95.50
2018-11-26T02:44:09.525Z,95.40
2018-11-26T02:46:37.915Z,95.60
2018-11-26T02:49:06.439Z,95.60
2018-11-26T02:51:34.876Z,95.80
2018-11-26T02:54:03.276Z,96.20
2018-11-26T02:56:31.762Z,95.80
2018-11-26T02:59:00.278Z,95.70
2018-11-26T03:01:28.747Z,95.40
2018-11-26T03:03:57.222Z,95.10
2018-11-26T03:06:25.630Z,94.90
2018-11-26T03:08:54.150Z,95.10
2018-11-26T03:11:22.617Z,94.80
2018-11-26T03:13:51.137Z,95.00
2018-11-26T03:16:19.641Z,95.20
2018-11-26T03:18:48.062Z,95.30
2018-11-26T03:21:16.476Z,95.40
2018-11-26T03:23:44.955Z,95.40
2018-11-26T03:26:13.443Z,95.20
2018-11-26T03:28:41.829Z,95.10
2018-11-26T03:31:10.297Z,95.10
2018-11-26T03:33:38.765Z,95.20
2018-11-26T03:36:07.649Z,95.10
2018-11-26T03:38:48.941Z,95.00
2018-11-26T03:41:17.407Z,94.80
2018-11-26T03:43:46.011Z,94.40
2018-11-26T03:46:14.470Z,94.20
2018-11-26T03:48:42.949Z,94.40
2018-11-26T03:51:11.390Z,94.40
2018-11-26T03:53:39.883Z,94.60
2018-11-26T03:56:08.317Z,94.80
2018-11-26T03:58:36.721Z,94.50
2018-11-26T04:01:05.223Z,94.40
2018-11-26T04:03:33.671Z,94.00
2018-11-26T04:06:02.157Z,93.90
2018-11-26T04:08:30.659Z,94.10
2018-11-26T04:10:59.120Z,94.00
2018-11-26T04:13:27.591Z,94.00
2018-11-26T04:15:55.969Z,93.60
2018-11-26T04:18:24.453Z,93.60
2018-11-26T04:20:52.848Z,93.50
2018-11-26T04:23:21.311Z,93.40
2018-11-26T04:25:49.825Z,93.60
2018-11-26T04:28:18.281Z,93.60
2018-11-26T04:30:46.790Z,93.70
2018-11-26T04:33:15.255Z,93.50
2018-11-26T04:35:43.635Z,93.60
2018-11-26T04:38:12.007Z,93.30
2018-11-26T04:40:40.473Z,93.00
2018-11-26T04:43:08.839Z,93.10
2018-11-26T04:45:37.252Z,93.30
2018-11-26T04:48:05.945Z,93.50
2018-11-26T04:50:34.423Z,93.20
2018-11-26T04:53:02.872Z,93.40
2018-11-26T04:55:31.233Z,93.40
2018-11-26T04:57:59.887Z,93.20
2018-11-26T05:00:28.300Z,93.40
2018-11-26T05:02:56.667Z,93.60
2018-11-26T05:05:25.095Z,93.60
2018-11-26T05:07:53.599Z,93.30
2018-11-26T05:10:21.977Z,93.10
2018-11-26T05:12:50.557Z,93.20
2018-11-26T05:15:19.017Z,93.20
2018-11-26T05:17:47.489Z,93.10
2018-11-26T05:20:15.951Z,93.10
2018-11-26T05:22:44.458Z,93.10
2018-11-26T05:25:13.022Z,93.20
2018-11-26T05:27:41.507Z,93.20
2018-11-26T05:30:13.119Z,93.40
2018-11-26T05:32:41.753Z,93.30
2018-11-26T05:35:11.171Z,93.50
2018-11-26T05:37:39.621Z,93.50
2018-11-26T05:40:13.152Z,93.40
2018-11-26T05:42:41.851Z,93.60
2018-11-26T05:45:11.620Z,93.50
2018-11-26T05:47:40.098Z,93.50
2018-11-26T05:50:10.796Z,93.20
2018-11-26T05:52:39.897Z,92.90
2018-11-26T05:55:10.888Z,93.00
2018-11-26T05:57:39.357Z,93.10
2018-11-26T06:00:21.782Z,93.10
2018-11-26T06:02:50.156Z,93.20
2018-11-26T06:05:18.557Z,93.40
2018-11-26T06:07:46.985Z,93.70
2018-11-26T06:10:15.392Z,93.70
2018-11-26T06:12:43.733Z,93.30
2018-11-26T06:15:13.450Z,93.50
2018-11-26T06:17:41.899Z,93.50
2018-11-26T06:20:11.725Z,93.60
2018-11-26T06:22:41.516Z,93.60
2018-11-26T06:25:12.052Z,93.60
2018-11-26T06:27:40.505Z,93.50
2018-11-26T06:30:11.369Z,93.40
2018-11-26T06:32:39.864Z,93.20
2018-11-26T06:35:15.879Z,93.10
2018-11-26T06:37:44.251Z,92.90
2018-11-26T06:40:13.415Z,92.90
2018-11-26T06:42:41.889Z,92.90
2018-11-26T06:45:15.610Z,92.90
2018-11-26T06:47:44.124Z,92.90
2018-11-26T06:50:13.651Z,93.00
2018-11-26T06:52:42.389Z,93.10
2018-11-26T06:55:12.197Z,93.20
2018-11-26T06:57:40.660Z,93.20
2018-11-26T07:00:12.478Z,93.00
2018-11-26T07:02:40.931Z,92.90
2018-11-26T07:05:13.050Z,93.00
2018-11-26T07:07:41.515Z,93.00
2018-11-26T07:10:11.090Z,93.00
2018-11-26T07:12:39.939Z,93.10
2018-11-26T07:15:12.767Z,93.20
2018-11-26T07:17:41.645Z,93.30
2018-11-26T07:20:11.742Z,93.60
2018-11-26T07:22:40.206Z,93.80
2018-11-26T07:25:10.220Z,93.60
2018-11-26T07:27:38.688Z,93.50
2018-11-26T07:30:23.442Z,93.60
2018-11-26T07:32:51.889Z,93.40
2018-11-26T07:35:20.458Z,93.30
2018-11-26T07:37:48.857Z,93.30
2018-11-26T07:40:19.312Z,93.20
2018-11-26T07:43:06.761Z,93.00
2018-11-26T07:45:35.237Z,93.20
2018-11-26T07:48:03.753Z,93.30
2018-11-26T07:50:32.249Z,93.30
2018-11-26T07:53:00.730Z,93.40
2018-11-26T07:55:29.160Z,93.40
2018-11-26T07:57:57.565Z,93.20
2018-11-26T08:00:26.013Z,93.50
2018-11-26T08:02:54.413Z,93.30
2018-11-26T08:05:23.840Z,93.20
2018-11-26T08:07:52.257Z,93.30
2018-11-26T08:10:22.143Z,93.30
2018-11-26T08:12:51.655Z,93.80
2018-11-26T08:15:27.495Z,93.50
2018-11-26T08:17:56.290Z,94.00
2018-11-26T08:20:24.721Z,94.60
2018-11-26T08:22:53.140Z,94.20
2018-11-26T08:25:22.481Z,94.10
2018-11-26T08:27:51.548Z,94.30
2018-11-26T08:30:24.562Z,94.30
2018-11-26T08:32:59.158Z,94.40
2018-11-26T08:35:27.667Z,94.20
2018-11-26T08:37:57.180Z,94.20
2018-11-26T08:40:31.232Z,93.90
2018-11-26T08:43:15.402Z,93.80
2018-11-26T08:45:54.193Z,94.00
2018-11-26T08:48:31.133Z,94.30
2018-11-26T08:51:02.069Z,94.10
2018-11-26T08:53:31.199Z,93.90
2018-11-26T08:55:59.681Z,93.90
2018-11-26T08:58:28.135Z,94.90
2018-11-26T09:01:01.803Z,94.70
2018-11-26T09:03:40.253Z,94.60
2018-11-26T09:06:08.733Z,94.70
2018-11-26T09:08:37.665Z,95.20
2018-11-26T09:11:07.805Z,95.40
2018-11-26T09:13:36.331Z,95.60
2018-11-26T09:16:04.874Z,95.40
2018-11-26T09:18:33.354Z,95.20
2018-11-26T09:21:02.116Z,95.00
2018-11-26T09:23:30.594Z,94.70
2018-11-26T09:25:58.982Z,94.90
2018-11-26T09:28:27.463Z,94.80
2018-11-26T09:30:55.936Z,94.80
2018-11-26T09:33:24.428Z,95.00
2018-11-26T09:35:53.330Z,95.10
2018-11-26T09:38:21.831Z,94.90
2018-11-26T09:40:50.429Z,95.40
2018-11-26T09:43:18.826Z,95.40
2018-11-26T09:45:47.238Z,94.90
2018-11-26T09:48:15.750Z,94.70
2018-11-26T09:50:44.276Z,94.70
2018-11-26T09:53:12.833Z,95.30
2018-11-26T09:55:41.426Z,95.10
2018-11-26T09:58:09.912Z,95.60
2018-11-26T10:00:38.333Z,95.50
2018-11-26T10:03:07.121Z,95.70
2018-11-26T10:05:35.646Z,95.50
2018-11-26T10:08:04.475Z,95.40
2018-11-26T10:10:33.268Z,95.00
2018-11-26T10:13:01.805Z,95.20
2018-11-26T10:15:30.232Z,94.80
2018-11-26T10:17:58.742Z,94.90
2018-11-26T10:20:27.561Z,94.90
2018-11-26T10:22:56.066Z,94.60
2018-11-26T10:25:24.559Z,94.40
2018-11-26T10:27:53.026Z,94.50
2018-11-26T10:30:23.356Z,94.40
2018-11-26T10:32:51.900Z,94.50
2018-11-26T10:35:21.150Z,94.40
2018-11-26T10:37:49.945Z,94.60
2018-11-26T10:40:23.732Z,94.60
2018-11-26T10:42:52.155Z,94.80
2018-11-26T10:45:21.696Z,95.00
2018-11-26T10:47:50.181Z,95.80
2018-11-26T10:50:21.092Z,95.10
2018-11-26T10:52:51.683Z,95.20
2018-11-26T10:55:21.633Z,95.20
2018-11-26T10:57:50.130Z,94.90
2018-11-26T11:00:23.984Z,95.10
2018-11-26T11:02:52.803Z,95.20
2018-11-26T11:05:23.257Z,95.10
2018-11-26T11:07:51.815Z,95.70
2018-11-26T11:10:22.756Z,95.40
2018-11-26T11:12:51.629Z,95.20
2018-11-26T11:15:20.075Z,95.00
2018-11-26T11:17:48.970Z,95.00
2018-11-26T11:20:20.656Z,94.70
2018-11-26T11:22:49.778Z,94.50
2018-11-26T11:25:18.924Z,94.50
2018-11-26T11:27:47.764Z,94.50
2018-11-26T11:30:20.259Z,94.40
2018-11-26T11:32:48.638Z,94.40
2018-11-26T11:35:18.357Z,94.60
2018-11-26T11:37:47.671Z,95.20
2018-11-26T11:40:23.238Z,94.50
2018-11-26T11:42:51.722Z,94.40
2018-11-26T11:45:20.479Z,94.40
2018-11-26T11:47:48.975Z,94.30
2018-11-26T11:50:18.506Z,94.40
2018-11-26T11:52:47.196Z,94.40
2018-11-26T11:55:18.763Z,94.60
2018-11-26T11:57:47.220Z,94.40
2018-11-26T12:00:23.580Z,94.40
2018-11-26T12:02:52.037Z,94.50
2018-11-26T12:05:20.533Z,95.40
2018-11-26T12:07:49.037Z,95.40
2018-11-26T12:10:17.517Z,95.20
2018-11-26T12:12:45.995Z,95.40
2018-11-26T12:15:16.146Z,95.70
2018-11-26T12:17:45.798Z,95.20
2018-11-26T12:20:15.005Z,94.90
2018-11-26T12:22:43.812Z,94.80
2018-11-26T12:25:14.685Z,95.00
2018-11-26T12:27:43.248Z,94.80
2018-11-26T12:30:13.518Z,95.10
2018-11-26T12:32:42.359Z,95.60
2018-11-26T12:35:11.181Z,95.40
2018-11-26T12:37:39.744Z,95.70
2018-11-26T12:40:10.056Z,95.60
2018-11-26T12:42:38.500Z,95.40
2018-11-26T12:45:30.995Z,95.40
2018-11-26T12:47:59.626Z,95.60
2018-11-26T12:50:28.458Z,95.60
2018-11-26T12:52:56.929Z,95.60
2018-11-26T12:55:26.357Z,95.40
2018-11-26T12:57:55.720Z,95.50
2018-11-26T13:00:25.166Z,95.60
2018-11-26T13:02:55.885Z,95.80
2018-11-26T13:05:24.439Z,95.40
2018-11-26T13:07:52.838Z,95.50
2018-11-26T13:10:22.225Z,95.70
2018-11-26T13:12:51.328Z,95.50
2018-11-26T13:15:20.861Z,95.30
2018-11-26T13:17:49.681Z,95.20
2018-11-26T13:20:20.580Z,95.40
2018-11-26T13:22:49.530Z,95.10
2018-11-26T13:25:23.924Z,95.10
2018-11-26T13:27:54.863Z,95.10
2018-11-26T13:30:25.106Z,95.10
2018-11-26T13:32:55.812Z,95.10
2018-11-26T13:35:24.348Z,94.90
2018-11-26T13:37:52.777Z,94.90
2018-11-26T13:40:21.874Z,95.00
2018-11-26T13:42:51.011Z,94.70
2018-11-26T13:45:24.154Z,94.70
2018-11-26T13:47:52.580Z,94.60
2018-11-26T13:50:37.256Z,94.80
2018-11-26T13:53:06.140Z,94.90
2018-11-26T13:55:34.964Z,94.80
2018-11-26T13:58:03.414Z,94.60
2018-11-26T14:00:31.889Z,94.60
2018-11-26T14:03:00.373Z,94.70
2018-11-26T14:05:28.796Z,94.50
2018-11-26T14:07:57.289Z,94.30
2018-11-26T14:10:27.773Z,94.20
2018-11-26T14:13:07.647Z,94.10
2018-11-26T14:15:36.090Z,94.40
2018-11-26T14:18:04.656Z,94.10
2018-11-26T14:20:33.516Z,93.90
2018-11-26T14:23:01.964Z,93.80
2018-11-26T14:25:30.450Z,93.90
2018-11-26T14:27:58.848Z,94.10
2018-11-26T14:30:28.208Z,94.20
2018-11-26T14:32:56.891Z,94.30
2018-11-26T14:35:25.366Z,93.90
2018-11-26T14:37:57.130Z,93.70
2018-11-26T14:40:28.148Z,93.70
2018-11-26T14:42:56.515Z,93.80
2018-11-26T14:45:24.968Z,94.10
2018-11-26T14:47:53.344Z,94.30
2018-11-26T14:50:21.714Z,94.20
2018-11-26T14:52:50.537Z,94.40
2018-11-26T14:55:24.936Z,93.90
2018-11-26T14:57:53.401Z,94.00
2018-11-26T15:00:22.275Z,94.10
2018-11-26T15:02:50.637Z,94.40
2018-11-26T15:05:19.036Z,94.20
2018-11-26T15:07:47.500Z,94.20
2018-11-26T15:10:23.670Z,94.30
2018-11-26T15:12:52.235Z,94.10
2018-11-26T15:15:23.712Z,93.60
2018-11-26T15:17:52.489Z,93.70
2018-11-26T15:20:25.386Z,93.40
2018-11-26T15:22:55.013Z,93.50
2018-11-26T15:25:25.284Z,93.60
2018-11-26T15:27:54.843Z,93.60
2018-11-26T15:30:23.463Z,93.90
2018-11-26T15:32:51.873Z,94.00
2018-11-26T15:35:21.929Z,94.00
2018-11-26T15:37:50.854Z,93.80
2018-11-26T15:40:20.723Z,93.80
2018-11-26T15:42:49.250Z,93.90
2018-11-26T15:45:21.844Z,93.80
2018-11-26T15:47:51.180Z,93.90
2018-11-26T15:50:19.954Z,94.00
2018-11-26T15:52:48.327Z,93.80
2018-11-26T15:55:18.261Z,93.80
2018-11-26T15:57:46.778Z,93.80
2018-11-26T16:00:18.513Z,93.90
2018-11-26T16:02:47.316Z,93.90
2018-11-26T16:05:24.081Z,93.80
2018-11-26T16:07:53.309Z,93.70
2018-11-26T16:10:21.783Z,93.70
2018-11-26T16:12:52.802Z,93.80
2018-11-26T16:15:23.886Z,93.80
2018-11-26T16:17:53.049Z,93.70
2018-11-26T16:20:23.297Z,93.90
2018-11-26T16:22:51.833Z,93.90
2018-11-26T16:25:22.505Z,94.00
2018-11-26T16:27:50.952Z,94.00
2018-11-26T16:30:19.762Z,93.90
2018-11-26T16:32:50.132Z,93.60
2018-11-26T16:35:22.855Z,93.30
2018-11-26T16:37:51.368Z,93.30
2018-11-26T16:40:19.838Z,93.00
2018-11-26T16:42:48.350Z,93.40
2018-11-26T16:45:18.652Z,93.60
2018-11-26T16:47:48.377Z,93.60
2018-11-26T16:50:17.788Z,93.80
2018-11-26T16:52:46.256Z,93.70
2018-11-26T16:55:15.676Z,93.80
2018-11-26T16:57:44.105Z,94.00
2018-11-26T17:00:20.248Z,93.90
2018-11-26T17:02:52.093Z,94.10
2018-11-26T17:05:23.060Z,94.10
2018-11-26T17:07:51.494Z,94.00
2018-11-26T17:10:19.983Z,93.40
2018-11-26T17:12:48.466Z,93.40
2018-11-26T17:15:18.656Z,93.50
2018-11-26T17:17:47.207Z,93.60
2018-11-26T17:20:16.612Z,93.70
2018-11-26T17:22:45.250Z,93.80
2018-11-26T17:25:15.295Z,93.80
2018-11-26T17:27:44.323Z,94.00
2018-11-26T17:30:16.045Z,93.90
2018-11-26T17:32:44.864Z,94.30
2018-11-26T17:35:14.232Z,94.00
2018-11-26T17:37:43.081Z,94.00
2018-11-26T17:40:12.781Z,94.10
2018-11-26T17:42:41.237Z,94.20
2018-11-26T17:45:12.094Z,94.20
2018-11-26T17:47:41.130Z,94.10
2018-11-26T17:50:14.345Z,94.50
2018-11-26T17:52:42.717Z,94.30
2018-11-26T17:55:11.465Z,94.30
2018-11-26T17:57:39.893Z,94.30
2018-11-26T18:00:12.967Z,94.40
2018-11-26T18:02:42.401Z,94.70
2018-11-26T18:05:18.318Z,94.30
2018-11-26T18:07:48.453Z,94.20
2018-11-26T18:10:16.961Z,94.10
2018-11-26T18:12:45.425Z,94.20
2018-11-26T18:15:15.692Z,94.30
2018-11-26T18:17:45.207Z,94.40
2018-11-26T18:20:18.963Z,94.40
2018-11-26T18:22:48.682Z,94.40
2018-11-26T18:25:17.693Z,94.40
2018-11-26T18:27:54.807Z,94.40
2018-11-26T18:30:25.429Z,94.40
2018-11-26T18:32:54.231Z,94.40
2018-11-26T18:35:22.666Z,94.40
2018-11-26T18:37:51.156Z,94.40
2018-11-26T18:40:19.598Z,94.40
2018-11-26T18:42:48.119Z,94.70
2018-11-26T18:45:17.589Z,94.40
2018-11-26T18:47:46.987Z,94.40
2018-11-26T18:50:17.435Z,94.40
2018-11-26T18:52:46.482Z,94.40
2018-11-26T18:55:14.983Z,94.40
2018-11-26T18:57:43.543Z,94.40
2018-11-26T19:00:14.814Z,94.40
2018-11-26T19:02:43.444Z,94.40
2018-11-26T19:05:13.148Z,94.40
2018-11-26T19:07:41.691Z,94.40
2018-11-26T19:10:16.715Z,93.80
2018-11-26T19:12:46.878Z,94.40
2018-11-26T19:15:19.272Z,94.30
2018-11-26T19:17:48.418Z,94.30
2018-11-26T19:20:17.212Z,94.20
2018-11-26T19:22:45.791Z,94.30
2018-11-26T19:25:15.853Z,94.30
2018-11-26T19:27:44.383Z,94.30
2018-11-26T19:30:14.525Z,94.30
2018-11-26T19:32:43.908Z,94.30
2018-11-26T19:35:13.956Z,94.60
2018-11-26T19:37:42.446Z,94.20
2018-11-26T19:40:15.025Z,94.10
2018-11-26T19:42:45.296Z,94.30
2018-11-26T19:45:17.512Z,94.40
2018-11-26T19:47:46.187Z,94.40
2018-11-26T19:50:15.826Z,94.40
2018-11-26T19:52:45.269Z,94.40
2018-11-26T19:55:16.440Z,94.40
2018-11-26T19:57:44.931Z,94.30
2018-11-26T20:00:19.469Z,94.40
2018-11-26T20:02:49.736Z,94.30
2018-11-26T20:05:22.422Z,94.30
2018-11-26T20:07:50.947Z,94.30
2018-11-26T20:10:19.451Z,94.30
2018-11-26T20:12:48.077Z,94.30
2018-11-26T20:15:17.582Z,94.30
2018-11-26T20:17:46.102Z,94.70
2018-11-26T20:20:14.630Z,94.30
2018-11-26T20:22:43.073Z,94.30
2018-11-26T20:25:13.181Z,94.30
2018-11-26T20:27:42.338Z,94.30
2018-11-26T20:30:15.113Z,94.30
2018-11-26T20:32:45.333Z,94.50
2018-11-26T20:35:13.881Z,94.30
2018-11-26T20:37:42.376Z,94.30
2018-11-26T20:40:13.186Z,94.40
2018-11-26T20:42:43.947Z,94.30
2018-11-26T20:45:13.853Z,94.30
2018-11-26T20:47:42.475Z,94.30
2018-11-26T20:50:20.440Z,94.30
2018-11-26T20:52:49.005Z,94.30
2018-11-26T20:55:19.165Z,94.40
2018-11-26T20:57:48.697Z,94.30
2018-11-26T21:00:19.477Z,94.20
2018-11-26T21:02:49.065Z,94.20
2018-11-26T21:05:18.045Z,94.00
2018-11-26T21:10:21.270Z,94.10
2018-11-26T21:12:52.673Z,94.10
2018-11-26T21:15:21.151Z,94.20
2018-11-26T21:17:51.794Z,94.50
2018-11-26T21:20:26.765Z,94.20
2018-11-26T21:22:57.288Z,94.20
2018-11-26T21:25:24.539Z,94.20
2018-11-26T21:27:53.072Z,94.30
2018-11-26T21:30:21.549Z,94.30
2018-11-26T21:32:50.052Z,94.30
2018-11-26T21:35:19.527Z,94.30
2018-11-26T21:37:50.359Z,94.20
2018-11-26T21:40:23.418Z,94.30
2018-11-26T21:42:52.061Z,94.40
2018-11-26T21:45:23.287Z,94.40
2018-11-26T21:47:51.777Z,94.40
2018-11-26T21:50:20.307Z,94.40
2018-11-26T21:52:48.838Z,94.20
2018-11-26T21:55:18.177Z,94.40
2018-11-26T21:57:46.991Z,94.40
2018-11-26T22:00:18.009Z,94.40
2018-11-26T22:02:46.642Z,94.40
2018-11-26T22:05:15.114Z,94.40
2018-11-26T22:07:43.942Z,94.40
2018-11-26T22:10:14.155Z,94.30
2018-11-26T22:12:43.648Z,94.30
2018-11-26T22:15:13.133Z,94.30
2018-11-26T22:17:41.933Z,94.40
2018-11-26T22:20:18.239Z,94.30
2018-11-26T22:22:46.741Z,94.30
2018-11-26T22:25:15.307Z,94.40
2018-11-26T22:27:43.861Z,94.40
2018-11-26T22:30:18.389Z,94.40
2018-11-26T22:32:47.339Z,94.40
2018-11-26T22:35:15.885Z,94.30
2018-11-26T22:37:44.441Z,94.30
2018-11-26T22:40:17.757Z,94.40
2018-11-26T22:42:46.313Z,94.40
2018-11-26T22:45:19.823Z,94.50
2018-11-26T22:47:55.527Z,94.40
2018-11-26T22:50:24.452Z,94.30
2018-11-26T22:52:53.299Z,94.60
2018-11-26T22:55:22.542Z,94.30
2018-11-26T22:57:50.296Z,94.30
2018-11-26T23:00:25.754Z,94.30
2018-11-26T23:02:56.991Z,94.30
2018-11-26T23:05:25.490Z,94.30
2018-11-26T23:07:54.049Z,94.30
2018-11-26T23:10:22.572Z,94.40
2018-11-26T23:12:51.056Z,94.40
2018-11-26T23:15:20.046Z,94.40
2018-11-26T23:17:48.900Z,94.40
2018-11-26T23:20:18.896Z,94.40
2018-11-26T23:22:47.510Z,94.40
2018-11-26T23:25:17.558Z,94.40
2018-11-26T23:27:46.066Z,94.40
2018-11-26T23:30:20.461Z,94.40
2018-11-26T23:32:51.035Z,94.50
2018-11-26T23:35:19.907Z,94.50
2018-11-26T23:37:48.449Z,94.50
2018-11-26T23:40:16.894Z,94.40
2018-11-26T23:42:45.717Z,94.70
2018-11-26T23:45:15.399Z,94.50
2018-11-26T23:47:43.912Z,94.40
2018-11-26T23:50:13.649Z,94.50
2018-11-26T23:52:42.899Z,94.50
2018-11-26T23:55:12.329Z,94.40
2018-11-26T23:57:40.880Z,94.40
